createdAt,value
2019-06-20T00:02:23.206Z,2.10
2019-06-20T00:05:16.016Z,1.95
2019-06-20T00:08:08.807Z,1.50
2019-06-20T00:11:01.865Z,1.40
2019-06-20T00:13:54.676Z,1.72
2019-06-20T00:16:47.719Z,2.08
2019-06-20T00:19:40.520Z,1.32
2019-06-20T00:22:33.577Z,2.47
2019-06-20T00:25:26.631Z,2.05
2019-06-20T00:28:19.692Z,1.98
2019-06-20T00:31:12.743Z,1.57
2019-06-20T00:34:05.798Z,1.40
2019-06-20T00:36:58.867Z,1.40
2019-06-20T00:39:51.662Z,1.10
2019-06-20T00:42:44.717Z,1.12
2019-06-20T00:45:37.527Z,1.42
2019-06-20T00:48:30.311Z,1.42
2019-06-20T00:51:23.369Z,1.42
2019-06-20T00:54:17.197Z,1.27
2019-06-20T00:57:09.995Z,1.50
2019-06-20T01:00:02.850Z,1.20
2019-06-20T01:02:55.589Z,1.40
2019-06-20T01:05:48.396Z,0.95
2019-06-20T01:08:41.447Z,1.25
2019-06-20T01:11:34.250Z,1.30
2019-06-20T01:14:27.309Z,1.30
2019-06-20T01:17:20.102Z,1.30
2019-06-20T01:20:12.906Z,1.10
2019-06-20T01:23:05.962Z,1.52
2019-06-20T01:25:55.175Z,1.62
2019-06-20T01:28:48.491Z,2.15
2019-06-20T01:31:41.289Z,1.75
2019-06-20T01:34:34.089Z,1.60
2019-06-20T01:37:26.886Z,1.98
2019-06-20T01:40:19.688Z,1.35
2019-06-20T01:43:12.487Z,1.50
2019-06-20T01:46:05.544Z,1.25
2019-06-20T01:48:58.342Z,1.07
2019-06-20T01:51:51.407Z,2.00
2019-06-20T01:54:44.200Z,1.15
2019-06-20T01:57:37.512Z,1.10
2019-06-20T02:00:30.313Z,1.20
2019-06-20T02:03:23.111Z,1.52
2019-06-20T02:06:16.170Z,2.15
2019-06-20T02:09:05.449Z,2.02
2019-06-20T02:11:58.184Z,1.60
2019-06-20T02:14:50.982Z,1.40
2019-06-20T02:17:43.789Z,1.40
2019-06-20T02:20:48.104Z,2.42
2019-06-20T02:23:40.905Z,1.10
2019-06-20T02:26:33.705Z,1.98
2019-06-20T02:29:26.506Z,1.65
2019-06-20T02:32:19.308Z,2.70
2019-06-20T02:35:12.105Z,1.85
2019-06-20T02:38:02.373Z,1.67
2019-06-20T02:40:55.148Z,1.20
2019-06-20T02:43:49.225Z,2.70
2019-06-20T02:46:42.083Z,2.08
2019-06-20T02:49:34.824Z,1.27
2019-06-20T02:52:27.879Z,1.37
2019-06-20T02:55:20.680Z,2.55
2019-06-20T02:58:13.479Z,2.65
2019-06-20T03:01:17.799Z,1.45
2019-06-20T03:04:11.879Z,2.58
2019-06-20T03:07:04.685Z,2.55
2019-06-20T03:09:57.487Z,2.95
2019-06-20T03:12:50.280Z,2.70
2019-06-20T03:15:43.077Z,1.82
2019-06-20T03:18:36.137Z,1.90
2019-06-20T03:21:31.242Z,1.50
2019-06-20T03:24:24.040Z,2.15
2019-06-20T03:27:16.839Z,2.20
2019-06-20T03:30:10.408Z,2.25
2019-06-20T03:33:03.225Z,1.90
2019-06-20T03:35:56.008Z,1.60
2019-06-20T03:38:49.066Z,1.60
2019-06-20T03:41:41.869Z,2.08
2019-06-20T03:44:35.689Z,1.70
2019-06-20T03:47:28.489Z,1.87
2019-06-20T03:50:21.287Z,2.00
2019-06-20T03:53:16.903Z,1.70
2019-06-20T03:56:09.705Z,1.50
2019-06-20T03:59:02.759Z,1.80
2019-06-20T04:01:55.835Z,1.67
2019-06-20T04:04:44.777Z,1.62
2019-06-20T04:07:37.835Z,1.07
2019-06-20T04:10:30.631Z,1.10
2019-06-20T04:13:24.455Z,1.20
2019-06-20T04:16:17.510Z,1.10
2019-06-20T04:19:10.311Z,1.20
2019-06-20T04:22:03.115Z,0.82
2019-06-20T04:24:56.168Z,1.40
2019-06-20T04:27:48.967Z,1.10
2019-06-20T04:30:41.769Z,1.00
2019-06-20T04:33:34.569Z,1.45
2019-06-20T04:36:28.392Z,1.45
2019-06-20T04:39:21.191Z,1.10
2019-06-20T04:42:14.250Z,1.07
2019-06-20T04:45:07.302Z,1.10
2019-06-20T04:48:00.101Z,1.00
2019-06-20T04:50:53.932Z,0.93
2019-06-20T04:53:46.984Z,0.85
2019-06-20T04:56:48.488Z,0.98
2019-06-20T04:59:41.544Z,0.80
2019-06-20T05:02:38.715Z,0.90
2019-06-20T05:05:31.501Z,0.88
2019-06-20T05:08:24.333Z,0.72
2019-06-20T05:11:17.098Z,0.62
2019-06-20T05:14:10.158Z,0.70
2019-06-20T05:17:06.879Z,1.17
2019-06-20T05:19:55.751Z,0.80
2019-06-20T05:22:48.809Z,1.70
2019-06-20T05:25:41.868Z,2.12
2019-06-20T05:28:34.919Z,0.68
2019-06-20T05:31:27.720Z,1.30
2019-06-20T05:34:20.774Z,1.30
2019-06-20T05:37:13.832Z,1.47
2019-06-20T05:40:01.332Z,1.30
2019-06-20T05:42:54.057Z,1.47
2019-06-20T05:45:48.828Z,0.80
2019-06-20T05:48:39.659Z,1.07
2019-06-20T05:51:32.460Z,1.05
2019-06-20T05:54:26.538Z,1.40
2019-06-20T05:57:19.592Z,1.92
2019-06-20T06:00:08.792Z,1.30
2019-06-20T06:02:58.265Z,0.98
2019-06-20T06:05:50.823Z,1.57
2019-06-20T06:08:44.391Z,1.45
2019-06-20T06:11:37.227Z,1.72
2019-06-20T06:14:30.247Z,2.70
2019-06-20T06:17:23.047Z,1.92
2019-06-20T06:20:16.107Z,2.17
2019-06-20T06:23:09.159Z,1.60
2019-06-20T06:26:02.985Z,1.80
2019-06-20T06:28:56.040Z,2.40
2019-06-20T06:31:48.853Z,2.95
2019-06-20T06:34:43.177Z,2.17
2019-06-20T06:37:37.253Z,2.77
2019-06-20T06:40:24.430Z,1.60
2019-06-20T06:43:17.223Z,3.10
2019-06-20T06:46:11.303Z,1.95
2019-06-20T06:49:00.583Z,1.82
2019-06-20T06:51:49.836Z,1.80
2019-06-20T06:54:43.046Z,1.52
2019-06-20T06:57:35.850Z,2.62
2019-06-20T07:00:29.935Z,2.67
2019-06-20T07:03:22.986Z,1.98
2019-06-20T07:06:15.784Z,1.82
2019-06-20T07:09:08.594Z,1.70
2019-06-20T07:12:01.382Z,1.65
2019-06-20T07:14:54.440Z,1.80
2019-06-20T07:17:47.241Z,1.25
2019-06-20T07:20:40.304Z,2.47
2019-06-20T07:23:33.359Z,2.75
2019-06-20T07:26:26.149Z,2.30
2019-06-20T07:29:18.952Z,2.55
2019-06-20T07:32:12.264Z,1.95
2019-06-20T07:35:06.090Z,2.35
2019-06-20T07:37:59.914Z,2.77
2019-06-20T07:40:52.727Z,1.57
2019-06-20T07:43:45.517Z,1.52
2019-06-20T07:46:38.640Z,2.10
2019-06-20T07:49:32.427Z,1.90
2019-06-20T07:52:25.226Z,2.15
2019-06-20T07:55:18.246Z,2.22
2019-06-20T07:58:11.048Z,1.55
2019-06-20T08:01:04.104Z,1.37
2019-06-20T08:03:56.904Z,1.65
2019-06-20T08:06:50.217Z,1.60
2019-06-20T08:09:45.233Z,2.20
2019-06-20T08:12:36.080Z,1.60
2019-06-20T08:15:21.877Z,1.45
2019-06-20T08:18:15.025Z,1.82
2019-06-20T08:21:08.643Z,1.65
2019-06-20T08:24:01.388Z,1.42
2019-06-20T08:26:56.758Z,1.90
2019-06-20T08:29:47.474Z,1.80
2019-06-20T08:32:40.304Z,2.02
2019-06-20T08:35:33.356Z,1.60
2019-06-20T08:38:26.408Z,1.65
2019-06-20T08:41:16.274Z,1.40
2019-06-20T08:44:09.506Z,2.20
2019-06-20T08:47:03.794Z,1.52
2019-06-20T08:49:56.805Z,2.22
2019-06-20T08:52:48.618Z,1.60
2019-06-20T08:55:41.428Z,1.87
2019-06-20T08:58:34.471Z,1.60
2019-06-20T09:01:23.991Z,2.17
2019-06-20T09:04:17.000Z,1.90
2019-06-20T09:07:10.318Z,1.50
2019-06-20T09:10:04.259Z,2.20
2019-06-20T09:12:57.084Z,2.00
2019-06-20T09:15:49.489Z,1.40
2019-06-20T09:18:42.799Z,1.55
2019-06-20T09:21:36.617Z,1.87
2019-06-20T09:24:29.416Z,1.52
2019-06-20T09:27:22.730Z,1.60
2019-06-20T09:30:16.811Z,1.82
2019-06-20T09:33:06.540Z,1.80
2019-06-20T09:35:59.557Z,1.82
2019-06-20T09:38:48.818Z,1.50
2019-06-20T09:41:41.609Z,1.70
2019-06-20T09:44:35.177Z,1.87
2019-06-20T09:47:27.982Z,1.22
2019-06-20T09:50:21.031Z,1.70
2019-06-20T09:53:10.256Z,1.40
2019-06-20T09:56:03.305Z,1.57
2019-06-20T09:58:58.132Z,1.47
2019-06-20T10:01:47.611Z,1.12
2019-06-20T10:04:38.673Z,1.30
2019-06-20T10:07:31.946Z,1.60
2019-06-20T10:10:25.001Z,1.62
2019-06-20T10:13:17.805Z,1.57
2019-06-20T10:16:10.855Z,1.30
2019-06-20T10:19:04.424Z,1.10
2019-06-20T10:21:57.479Z,1.37
2019-06-20T10:24:51.308Z,1.42
2019-06-20T10:27:45.987Z,1.67
2019-06-20T10:30:32.808Z,1.32
2019-06-20T10:33:25.876Z,1.42
2019-06-20T10:36:19.185Z,1.45
2019-06-20T10:39:12.231Z,1.17
2019-06-20T10:42:05.292Z,1.42
2019-06-20T10:44:59.112Z,1.30
2019-06-20T10:47:52.925Z,1.02
2019-06-20T10:50:45.657Z,1.10
2019-06-20T10:53:38.027Z,1.98
2019-06-20T10:56:31.083Z,1.32
2019-06-20T10:59:24.136Z,1.20
2019-06-20T11:02:16.942Z,1.57
2019-06-20T11:05:09.991Z,1.45
2019-06-20T11:08:02.791Z,1.10
2019-06-20T11:10:51.910Z,1.02
2019-06-20T11:13:44.812Z,1.00
2019-06-20T11:16:38.684Z,1.40
2019-06-20T11:19:30.666Z,1.25
2019-06-20T11:22:23.724Z,0.90
2019-06-20T11:25:19.121Z,1.22
2019-06-20T11:28:10.343Z,1.30
2019-06-20T11:31:58.448Z,0.90
2019-06-20T11:34:52.264Z,1.10
2019-06-20T11:37:45.213Z,1.02
2019-06-20T11:40:36.810Z,1.00
2019-06-20T11:43:28.361Z,1.20
2019-06-20T11:46:21.158Z,1.10
2019-06-20T11:49:14.219Z,1.40
2019-06-20T11:52:07.791Z,1.30
2019-06-20T11:55:00.584Z,1.20
2019-06-20T11:57:53.390Z,1.00
2019-06-20T12:01:02.482Z,1.02
2019-06-20T12:03:40.761Z,1.00
2019-06-20T12:06:29.928Z,1.12
2019-06-20T12:09:19.210Z,0.85
2019-06-20T12:12:12.010Z,1.05
2019-06-20T12:15:07.119Z,0.90
2019-06-20T12:17:58.119Z,0.93
2019-06-20T12:20:51.182Z,0.98
2019-06-20T12:23:44.918Z,1.10
2019-06-20T12:26:38.919Z,0.80
2019-06-20T12:29:30.342Z,0.50
2019-06-20T12:32:24.168Z,1.37
2019-06-20T12:35:16.967Z,1.10
2019-06-20T12:38:09.779Z,0.75
2019-06-20T12:41:02.828Z,1.05
2019-06-20T12:43:55.882Z,0.80
2019-06-20T12:46:49.103Z,1.10
2019-06-20T12:49:43.768Z,1.00
2019-06-20T12:52:37.854Z,0.60
2019-06-20T12:55:29.750Z,0.70
2019-06-20T12:58:22.950Z,1.00
2019-06-20T13:01:16.011Z,0.90
2019-06-20T13:04:09.326Z,0.72
2019-06-20T13:07:02.375Z,0.80
2019-06-20T13:09:55.431Z,0.70
2019-06-20T13:12:48.841Z,0.80
2019-06-20T13:15:42.495Z,0.98
2019-06-20T13:18:43.107Z,0.78
2019-06-20T13:21:30.472Z,0.68
2019-06-20T13:24:23.781Z,0.72
2019-06-20T13:27:16.586Z,1.00
2019-06-20T13:30:09.399Z,0.80
2019-06-20T13:33:02.187Z,0.85
2019-06-20T13:35:54.981Z,0.85
2019-06-20T13:38:48.810Z,0.70
2019-06-20T13:41:50.297Z,1.12
2019-06-20T13:44:42.671Z,0.80
2019-06-20T13:47:34.897Z,0.80
2019-06-20T13:50:28.203Z,0.90
2019-06-20T13:53:21.257Z,0.60
2019-06-20T13:56:15.082Z,0.93
2019-06-20T13:59:10.243Z,0.93
2019-06-20T14:02:06.522Z,0.70
2019-06-20T14:04:53.739Z,0.70
2019-06-20T14:07:50.979Z,1.22
2019-06-20T14:10:40.105Z,1.00
2019-06-20T14:13:33.415Z,0.70
2019-06-20T14:16:22.645Z,1.00
2019-06-20T14:19:15.430Z,0.85
2019-06-20T14:22:09.256Z,0.60
2019-06-20T14:25:03.340Z,0.60
2019-06-20T14:27:56.135Z,0.50
2019-06-20T14:30:52.792Z,0.90
2019-06-20T14:33:46.604Z,1.05
2019-06-20T14:36:39.407Z,0.93
2019-06-20T14:39:34.206Z,1.00
2019-06-20T14:42:25.254Z,0.90
2019-06-20T14:45:18.310Z,0.80
2019-06-20T14:48:11.624Z,0.90
2019-06-20T14:51:04.936Z,0.80
2019-06-20T14:53:57.997Z,0.60
2019-06-20T14:56:51.956Z,0.70
2019-06-20T14:59:44.985Z,0.82
2019-06-20T15:02:38.888Z,0.70
2019-06-20T15:05:30.484Z,0.70
2019-06-20T15:08:23.541Z,1.00
2019-06-20T15:11:16.586Z,0.78
2019-06-20T15:14:09.639Z,1.15
2019-06-20T15:17:02.695Z,0.70
2019-06-20T15:19:56.168Z,0.68
2019-06-20T15:22:50.835Z,0.70
2019-06-20T15:25:42.631Z,1.02
2019-06-20T15:28:35.432Z,0.90
2019-06-20T15:31:28.230Z,0.78
2019-06-20T15:34:21.287Z,0.85
2019-06-20T15:37:14.353Z,0.88
2019-06-20T15:40:07.151Z,0.80
2019-06-20T15:43:00.198Z,0.80
2019-06-20T15:45:53.822Z,0.80
2019-06-20T15:48:46.569Z,0.90
2019-06-20T15:51:39.372Z,1.27
2019-06-20T15:54:32.170Z,0.65
2019-06-20T15:57:24.976Z,0.90
2019-06-20T16:00:17.791Z,0.60
2019-06-20T16:03:10.185Z,0.80
2019-06-20T16:06:01.066Z,0.90
2019-06-20T16:08:54.126Z,1.10
2019-06-20T16:11:47.942Z,0.93
2019-06-20T16:14:41.004Z,0.80
2019-06-20T16:17:33.803Z,0.53
2019-06-20T16:20:24.113Z,0.88
2019-06-20T16:23:16.856Z,0.85
2019-06-20T16:26:10.663Z,0.65
2019-06-20T16:29:03.720Z,0.80
2019-06-20T16:31:56.784Z,0.82
2019-06-20T16:34:50.602Z,1.32
2019-06-20T16:37:43.655Z,0.95
2019-06-20T16:40:36.716Z,0.90
2019-06-20T16:43:30.792Z,0.80
2019-06-20T16:46:24.107Z,0.60
2019-06-20T16:49:17.160Z,0.70
2019-06-20T16:52:10.217Z,0.85
2019-06-20T16:55:04.297Z,0.70
2019-06-20T16:57:57.096Z,0.70
2019-06-20T17:00:44.266Z,0.60
2019-06-20T17:03:41.528Z,0.57
2019-06-20T17:06:29.870Z,0.85
2019-06-20T17:09:21.129Z,0.88
2019-06-20T17:12:14.206Z,0.47
2019-06-20T17:15:07.497Z,0.75
2019-06-20T17:17:56.714Z,0.60
2019-06-20T17:20:49.769Z,0.65
2019-06-20T17:23:42.824Z,0.78
2019-06-20T17:26:35.880Z,0.68
2019-06-20T17:29:28.940Z,0.60
2019-06-20T17:32:21.737Z,0.55
2019-06-20T17:35:14.538Z,0.40
2019-06-20T17:38:07.598Z,0.60
2019-06-20T17:41:00.922Z,0.85
2019-06-20T17:43:53.966Z,0.70
2019-06-20T17:46:47.536Z,0.70
2019-06-20T17:49:40.586Z,0.60
2019-06-20T17:52:33.643Z,0.75
2019-06-20T17:55:26.696Z,0.68
2019-06-20T17:58:20.010Z,0.60
2019-06-20T18:01:13.064Z,0.60
2019-06-20T18:04:13.254Z,0.60
2019-06-20T18:06:55.595Z,0.72
2019-06-20T18:09:48.648Z,0.50
2019-06-20T18:12:41.959Z,0.42
2019-06-20T18:15:35.274Z,0.47
2019-06-20T18:18:28.586Z,0.45
2019-06-20T18:21:22.153Z,0.50
2019-06-20T18:24:15.465Z,0.75
2019-06-20T18:27:08.284Z,0.60
2019-06-20T18:30:01.359Z,0.60
2019-06-20T18:32:54.375Z,0.50
2019-06-20T18:35:47.946Z,0.40
2019-06-20T18:38:41.513Z,0.50
2019-06-20T18:41:34.568Z,0.60
2019-06-20T18:44:27.886Z,0.60
2019-06-20T18:47:21.975Z,0.53
2019-06-20T18:50:14.006Z,0.50
2019-06-20T18:53:03.371Z,0.80
2019-06-20T18:55:56.782Z,0.90
2019-06-20T18:58:49.831Z,0.57
2019-06-20T19:01:43.663Z,0.60
2019-06-20T19:04:46.161Z,0.68
2019-06-20T19:07:29.803Z,0.40
2019-06-20T19:10:19.128Z,0.50
2019-06-20T19:13:13.105Z,0.60
2019-06-20T19:16:04.840Z,0.57
2019-06-20T19:18:57.898Z,0.55
2019-06-20T19:21:51.222Z,0.40
2019-06-20T19:24:44.008Z,0.57
2019-06-20T19:27:45.961Z,0.60
2019-06-20T19:30:30.375Z,0.80
2019-06-20T19:33:23.686Z,0.62
2019-06-20T19:36:16.487Z,0.68
2019-06-20T19:39:10.058Z,0.45
2019-06-20T19:42:04.135Z,0.93
2019-06-20T19:44:57.195Z,0.95
2019-06-20T19:47:50.248Z,0.50
2019-06-20T19:50:43.047Z,0.80
2019-06-20T19:53:36.371Z,0.40
2019-06-20T19:56:26.601Z,0.40
2019-06-20T19:59:19.911Z,0.60
2019-06-20T20:02:12.713Z,0.60
2019-06-20T20:05:17.956Z,0.82
2019-06-20T20:07:51.477Z,0.60
2019-06-20T20:10:48.295Z,0.68
2019-06-20T20:13:41.099Z,0.60
2019-06-20T20:16:34.161Z,0.30
2019-06-20T20:19:26.951Z,0.62
2019-06-20T20:22:20.007Z,0.80
2019-06-20T20:25:13.068Z,0.60
2019-06-20T20:28:06.375Z,0.70
2019-06-20T20:30:59.433Z,0.78
2019-06-20T20:34:00.197Z,0.88
2019-06-20T20:37:35.919Z,0.72
2019-06-20T20:40:26.216Z,0.60
2019-06-20T20:43:19.270Z,0.65
2019-06-20T20:46:12.870Z,0.60
2019-06-20T20:49:06.937Z,0.82
2019-06-20T20:51:59.988Z,0.70
2019-06-20T20:54:54.311Z,0.85
2019-06-20T20:57:47.366Z,0.57
2019-06-20T21:00:44.523Z,0.60
2019-06-20T21:03:38.607Z,0.88
2019-06-20T21:06:27.826Z,0.72
2019-06-20T21:09:20.887Z,0.72
2019-06-20T21:12:08.299Z,0.53
2019-06-20T21:15:02.155Z,0.72
2019-06-20T21:17:55.779Z,0.70
2019-06-20T21:20:47.991Z,0.75
2019-06-20T21:23:41.030Z,0.80
2019-06-20T21:26:48.343Z,0.80
2019-06-20T21:29:27.398Z,0.90
2019-06-20T21:32:20.459Z,0.50
2019-06-20T21:35:13.511Z,0.75
2019-06-20T21:38:06.568Z,0.60
2019-06-20T21:40:59.621Z,0.50
2019-06-20T21:43:52.939Z,0.98
2019-06-20T21:46:45.733Z,1.10
2019-06-20T21:49:38.537Z,1.10
2019-06-20T21:52:31.591Z,0.72
2019-06-20T21:55:24.652Z,0.80
2019-06-20T21:58:18.984Z,0.80
2019-06-20T22:01:08.203Z,0.60
2019-06-20T22:04:01.375Z,0.65
2019-06-20T22:06:54.060Z,1.07
2019-06-20T22:09:47.118Z,0.75
2019-06-20T22:12:39.910Z,0.70
2019-06-20T22:15:32.971Z,0.78
2019-06-20T22:18:46.768Z,1.00
2019-06-20T22:22:05.927Z,0.85
2019-06-20T22:25:14.551Z,0.80
2019-06-20T22:28:14.313Z,0.62
2019-06-20T22:31:27.857Z,0.98
2019-06-20T22:34:22.193Z,0.72
